sensor_id;sensor_type;location;lat;lon;timestamp;P1;durP1;ratioP1;P2;durP2;ratioP2
5937;SDS011;2994;51.220;4.412;2023-04-07T00:01:06;7.63;;;6.30;;
5937;SDS011;2994;51.220;4.412;2023-04-07T00:03:31;9.77;;;5.83;;
5937;SDS011;2994;51.220;4.412;2023-04-07T00:05:57;7.80;;;5.60;;
5937;SDS011;2994;51.220;4.412;2023-04-07T00:08:23;9.30;;;6.83;;
5937;SDS011;2994;51.220;4.412;2023-04-07T00:10:48;6.30;;;4.90;;
5937;SDS011;2994;51.220;4.412;2023-04-07T00:13:14;6.50;;;5.37;;
5937;SDS011;2994;51.220;4.412;2023-04-07T00:15:40;10.70;;;6.47;;
5937;SDS011;2994;51.220;4.412;2023-04-07T00:18:05;8.97;;;6.03;;
5937;SDS011;2994;51.220;4.412;2023-04-07T00:20:31;6.20;;;5.23;;
5937;SDS011;2994;51.220;4.412;2023-04-07T00:22:56;7.40;;;6.20;;
5937;SDS011;2994;51.220;4.412;2023-04-07T00:25:22;8.30;;;6.10;;
5937;SDS011;2994;51.220;4.412;2023-04-07T00:27:47;6.03;;;5.40;;
5937;SDS011;2994;51.220;4.412;2023-04-07T00:30:13;10.73;;;6.47;;
5937;SDS011;2994;51.220;4.412;2023-04-07T00:32:39;9.00;;;7.17;;
5937;SDS011;2994;51.220;4.412;2023-04-07T00:35:05;10.93;;;7.83;;
5937;SDS011;2994;51.220;4.412;2023-04-07T00:37:30;11.67;;;7.23;;
5937;SDS011;2994;51.220;4.412;2023-04-07T00:39:56;9.17;;;7.03;;
5937;SDS011;2994;51.220;4.412;2023-04-07T00:42:23;13.23;;;8.20;;
5937;SDS011;2994;51.220;4.412;2023-04-07T00:44:48;14.70;;;8.47;;
5937;SDS011;2994;51.220;4.412;2023-04-07T00:47:14;8.70;;;7.43;;
5937;SDS011;2994;51.220;4.412;2023-04-07T00:49:40;11.23;;;6.77;;
5937;SDS011;2994;51.220;4.412;2023-04-07T00:52:05;15.70;;;8.37;;
5937;SDS011;2994;51.220;4.412;2023-04-07T00:54:33;8.07;;;6.33;;
5937;SDS011;2994;51.220;4.412;2023-04-07T00:56:58;12.00;;;7.50;;
5937;SDS011;2994;51.220;4.412;2023-04-07T00:59:25;10.27;;;6.63;;
5937;SDS011;2994;51.220;4.412;2023-04-07T01:01:58;10.40;;;7.53;;
5937;SDS011;2994;51.220;4.412;2023-04-07T01:05:12;10.03;;;7.50;;
5937;SDS011;2994;51.220;4.412;2023-04-07T01:07:47;12.00;;;8.07;;
5937;SDS011;2994;51.220;4.412;2023-04-07T01:10:15;8.53;;;6.20;;
5937;SDS011;2994;51.220;4.412;2023-04-07T01:12:53;9.00;;;5.63;;
5937;SDS011;2994;51.220;4.412;2023-04-07T01:15:33;16.23;;;7.50;;
5937;SDS011;2994;51.220;4.412;2023-04-07T01:18:12;12.27;;;7.50;;
5937;SDS011;2994;51.220;4.412;2023-04-07T01:20:41;11.43;;;6.50;;
5937;SDS011;2994;51.220;4.412;2023-04-07T01:23:10;14.93;;;7.33;;
5937;SDS011;2994;51.220;4.412;2023-04-07T01:25:59;9.23;;;7.43;;
5937;SDS011;2994;51.220;4.412;2023-04-07T01:31:11;8.80;;;6.80;;
5937;SDS011;2994;51.220;4.412;2023-04-07T01:33:38;9.30;;;7.60;;
5937;SDS011;2994;51.220;4.412;2023-04-07T01:36:07;9.57;;;7.20;;
5937;SDS011;2994;51.220;4.412;2023-04-07T01:38:34;10.60;;;6.40;;
5937;SDS011;2994;51.220;4.412;2023-04-07T01:41:00;9.20;;;6.73;;
5937;SDS011;2994;51.220;4.412;2023-04-07T01:43:27;9.10;;;6.03;;
5937;SDS011;2994;51.220;4.412;2023-04-07T01:45:54;11.67;;;6.77;;
5937;SDS011;2994;51.220;4.412;2023-04-07T01:48:21;12.93;;;9.03;;
5937;SDS011;2994;51.220;4.412;2023-04-07T01:50:48;9.60;;;6.27;;
5937;SDS011;2994;51.220;4.412;2023-04-07T01:53:14;11.30;;;7.10;;
5937;SDS011;2994;51.220;4.412;2023-04-07T01:55:41;16.50;;;6.77;;
5937;SDS011;2994;51.220;4.412;2023-04-07T01:58:07;10.90;;;7.17;;
5937;SDS011;2994;51.220;4.412;2023-04-07T02:00:33;8.13;;;6.87;;
5937;SDS011;2994;51.220;4.412;2023-04-07T02:03:00;10.47;;;7.23;;
5937;SDS011;2994;51.220;4.412;2023-04-07T02:05:34;10.93;;;7.50;;
5937;SDS011;2994;51.220;4.412;2023-04-07T02:08:03;11.37;;;8.07;;
5937;SDS011;2994;51.220;4.412;2023-04-07T02:10:33;12.77;;;8.10;;
5937;SDS011;2994;51.220;4.412;2023-04-07T02:13:02;9.73;;;8.20;;
5937;SDS011;2994;51.220;4.412;2023-04-07T02:15:29;12.13;;;8.43;;
5937;SDS011;2994;51.220;4.412;2023-04-07T02:17:56;9.50;;;7.63;;
5937;SDS011;2994;51.220;4.412;2023-04-07T02:20:23;11.37;;;7.37;;
5937;SDS011;2994;51.220;4.412;2023-04-07T02:22:49;13.47;;;8.00;;
5937;SDS011;2994;51.220;4.412;2023-04-07T02:25:21;9.07;;;7.00;;
5937;SDS011;2994;51.220;4.412;2023-04-07T02:27:48;12.80;;;7.27;;
5937;SDS011;2994;51.220;4.412;2023-04-07T02:30:14;8.63;;;7.20;;
5937;SDS011;2994;51.220;4.412;2023-04-07T02:32:40;9.03;;;6.60;;
5937;SDS011;2994;51.220;4.412;2023-04-07T02:35:05;10.80;;;7.40;;
5937;SDS011;2994;51.220;4.412;2023-04-07T02:37:31;12.00;;;9.07;;
5937;SDS011;2994;51.220;4.412;2023-04-07T02:39:56;18.10;;;9.27;;
5937;SDS011;2994;51.220;4.412;2023-04-07T02:42:22;16.73;;;9.63;;
5937;SDS011;2994;51.220;4.412;2023-04-07T02:44:48;18.07;;;11.27;;
5937;SDS011;2994;51.220;4.412;2023-04-07T02:47:14;12.17;;;9.60;;
5937;SDS011;2994;51.220;4.412;2023-04-07T02:49:40;14.33;;;10.27;;
5937;SDS011;2994;51.220;4.412;2023-04-07T02:52:05;15.30;;;9.00;;
5937;SDS011;2994;51.220;4.412;2023-04-07T02:54:31;16.40;;;9.83;;
5937;SDS011;2994;51.220;4.412;2023-04-07T02:56:56;13.53;;;10.00;;
5937;SDS011;2994;51.220;4.412;2023-04-07T02:59:22;17.40;;;10.97;;
5937;SDS011;2994;51.220;4.412;2023-04-07T03:01:47;15.87;;;10.20;;
5937;SDS011;2994;51.220;4.412;2023-04-07T03:04:13;12.87;;;10.17;;
5937;SDS011;2994;51.220;4.412;2023-04-07T03:06:38;14.30;;;9.60;;
5937;SDS011;2994;51.220;4.412;2023-04-07T03:09:04;16.90;;;9.87;;
5937;SDS011;2994;51.220;4.412;2023-04-07T03:11:29;12.80;;;8.50;;
5937;SDS011;2994;51.220;4.412;2023-04-07T03:13:55;10.77;;;7.20;;
5937;SDS011;2994;51.220;4.412;2023-04-07T03:16:20;10.57;;;6.80;;
5937;SDS011;2994;51.220;4.412;2023-04-07T03:18:46;8.67;;;5.50;;
5937;SDS011;2994;51.220;4.412;2023-04-07T03:21:11;8.60;;;6.27;;
5937;SDS011;2994;51.220;4.412;2023-04-07T03:23:37;11.77;;;5.73;;
5937;SDS011;2994;51.220;4.412;2023-04-07T03:26:03;10.33;;;6.90;;
5937;SDS011;2994;51.220;4.412;2023-04-07T03:28:28;8.57;;;6.87;;
5937;SDS011;2994;51.220;4.412;2023-04-07T03:30:53;10.50;;;7.80;;
5937;SDS011;2994;51.220;4.412;2023-04-07T03:33:19;15.57;;;7.83;;
5937;SDS011;2994;51.220;4.412;2023-04-07T03:35:45;10.10;;;6.80;;
5937;SDS011;2994;51.220;4.412;2023-04-07T03:38:10;9.83;;;7.30;;
5937;SDS011;2994;51.220;4.412;2023-04-07T03:40:36;14.97;;;8.50;;
5937;SDS011;2994;51.220;4.412;2023-04-07T03:43:01;10.87;;;7.73;;
5937;SDS011;2994;51.220;4.412;2023-04-07T03:45:27;9.40;;;7.57;;
5937;SDS011;2994;51.220;4.412;2023-04-07T03:47:52;11.87;;;7.33;;
5937;SDS011;2994;51.220;4.412;2023-04-07T03:50:18;12.60;;;7.57;;
5937;SDS011;2994;51.220;4.412;2023-04-07T03:52:44;10.33;;;7.73;;
5937;SDS011;2994;51.220;4.412;2023-04-07T03:55:09;10.80;;;7.70;;
5937;SDS011;2994;51.220;4.412;2023-04-07T03:57:35;12.80;;;8.80;;
5937;SDS011;2994;51.220;4.412;2023-04-07T04:00:00;10.60;;;7.00;;
5937;SDS011;2994;51.220;4.412;2023-04-07T04:02:26;10.50;;;6.63;;
5937;SDS011;2994;51.220;4.412;2023-04-07T04:04:52;20.37;;;8.07;;
5937;SDS011;2994;51.220;4.412;2023-04-07T04:07:17;9.60;;;6.97;;
5937;SDS011;2994;51.220;4.412;2023-04-07T04:09:43;9.73;;;7.57;;
5937;SDS011;2994;51.220;4.412;2023-04-07T04:12:08;8.83;;;6.50;;
5937;SDS011;2994;51.220;4.412;2023-04-07T04:14:33;8.50;;;6.50;;
5937;SDS011;2994;51.220;4.412;2023-04-07T04:16:59;9.60;;;6.53;;
5937;SDS011;2994;51.220;4.412;2023-04-07T04:19:25;6.80;;;5.20;;
5937;SDS011;2994;51.220;4.412;2023-04-07T04:21:50;11.30;;;6.40;;
5937;SDS011;2994;51.220;4.412;2023-04-07T04:24:15;11.27;;;6.70;;
5937;SDS011;2994;51.220;4.412;2023-04-07T04:26:41;8.70;;;5.77;;
5937;SDS011;2994;51.220;4.412;2023-04-07T04:29:06;9.00;;;6.13;;
5937;SDS011;2994;51.220;4.412;2023-04-07T04:31:32;11.37;;;6.10;;
5937;SDS011;2994;51.220;4.412;2023-04-07T04:33:57;7.00;;;5.50;;
5937;SDS011;2994;51.220;4.412;2023-04-07T04:36:23;8.33;;;6.00;;
5937;SDS011;2994;51.220;4.412;2023-04-07T04:38:48;9.80;;;5.73;;
5937;SDS011;2994;51.220;4.412;2023-04-07T04:41:14;7.50;;;5.27;;
5937;SDS011;2994;51.220;4.412;2023-04-07T04:43:40;8.80;;;4.97;;
5937;SDS011;2994;51.220;4.412;2023-04-07T04:46:05;7.60;;;5.87;;
5937;SDS011;2994;51.220;4.412;2023-04-07T04:48:31;8.97;;;5.90;;
5937;SDS011;2994;51.220;4.412;2023-04-07T04:50:56;10.20;;;5.50;;
5937;SDS011;2994;51.220;4.412;2023-04-07T04:53:21;7.90;;;5.90;;
5937;SDS011;2994;51.220;4.412;2023-04-07T04:55:47;8.80;;;5.63;;
5937;SDS011;2994;51.220;4.412;2023-04-07T04:58:16;9.80;;;6.37;;
5937;SDS011;2994;51.220;4.412;2023-04-07T05:00:45;13.60;;;5.83;;
5937;SDS011;2994;51.220;4.412;2023-04-07T05:03:10;10.97;;;6.23;;
5937;SDS011;2994;51.220;4.412;2023-04-07T05:05:36;10.70;;;6.53;;
5937;SDS011;2994;51.220;4.412;2023-04-07T05:08:01;8.30;;;6.87;;
5937;SDS011;2994;51.220;4.412;2023-04-07T05:10:27;11.80;;;7.40;;
5937;SDS011;2994;51.220;4.412;2023-04-07T05:12:52;10.03;;;7.20;;
5937;SDS011;2994;51.220;4.412;2023-04-07T05:15:17;8.57;;;6.73;;
5937;SDS011;2994;51.220;4.412;2023-04-07T05:17:43;14.17;;;6.87;;
5937;SDS011;2994;51.220;4.412;2023-04-07T05:20:14;12.97;;;6.00;;
5937;SDS011;2994;51.220;4.412;2023-04-07T05:22:40;8.73;;;6.60;;
5937;SDS011;2994;51.220;4.412;2023-04-07T05:25:05;11.13;;;6.40;;
5937;SDS011;2994;51.220;4.412;2023-04-07T05:27:31;14.00;;;6.30;;
5937;SDS011;2994;51.220;4.412;2023-04-07T05:29:56;9.13;;;6.33;;
5937;SDS011;2994;51.220;4.412;2023-04-07T05:32:22;9.50;;;6.63;;
5937;SDS011;2994;51.220;4.412;2023-04-07T05:34:48;8.33;;;5.87;;
5937;SDS011;2994;51.220;4.412;2023-04-07T05:37:13;11.20;;;6.97;;
5937;SDS011;2994;51.220;4.412;2023-04-07T05:39:39;9.93;;;6.87;;
5937;SDS011;2994;51.220;4.412;2023-04-07T05:42:04;11.40;;;7.47;;
5937;SDS011;2994;51.220;4.412;2023-04-07T05:44:30;11.33;;;7.30;;
5937;SDS011;2994;51.220;4.412;2023-04-07T05:46:55;8.47;;;7.03;;
5937;SDS011;2994;51.220;4.412;2023-04-07T05:49:21;10.03;;;7.03;;
5937;SDS011;2994;51.220;4.412;2023-04-07T05:51:46;13.50;;;7.70;;
5937;SDS011;2994;51.220;4.412;2023-04-07T05:54:12;9.47;;;6.63;;
5937;SDS011;2994;51.220;4.412;2023-04-07T05:56:37;14.43;;;7.90;;
5937;SDS011;2994;51.220;4.412;2023-04-07T05:59:03;12.63;;;7.43;;
5937;SDS011;2994;51.220;4.412;2023-04-07T06:01:28;8.03;;;7.03;;
5937;SDS011;2994;51.220;4.412;2023-04-07T06:03:53;11.93;;;7.53;;
5937;SDS011;2994;51.220;4.412;2023-04-07T06:06:19;8.10;;;7.07;;
5937;SDS011;2994;51.220;4.412;2023-04-07T06:08:45;8.57;;;7.50;;
5937;SDS011;2994;51.220;4.412;2023-04-07T06:11:11;10.20;;;6.73;;
5937;SDS011;2994;51.220;4.412;2023-04-07T06:13:36;9.03;;;7.03;;
5937;SDS011;2994;51.220;4.412;2023-04-07T06:16:02;8.27;;;7.20;;
5937;SDS011;2994;51.220;4.412;2023-04-07T06:18:28;8.37;;;7.13;;
5937;SDS011;2994;51.220;4.412;2023-04-07T06:20:53;8.30;;;7.50;;
5937;SDS011;2994;51.220;4.412;2023-04-07T06:23:19;12.30;;;7.90;;
5937;SDS011;2994;51.220;4.412;2023-04-07T06:25:45;9.00;;;7.10;;
5937;SDS011;2994;51.220;4.412;2023-04-07T06:28:10;12.87;;;7.90;;
5937;SDS011;2994;51.220;4.412;2023-04-07T06:30:36;7.27;;;6.17;;
5937;SDS011;2994;51.220;4.412;2023-04-07T06:33:01;7.83;;;6.27;;
5937;SDS011;2994;51.220;4.412;2023-04-07T06:35:27;8.30;;;5.40;;
5937;SDS011;2994;51.220;4.412;2023-04-07T06:37:53;8.10;;;5.97;;
5937;SDS011;2994;51.220;4.412;2023-04-07T06:40:18;8.30;;;5.60;;
5937;SDS011;2994;51.220;4.412;2023-04-07T06:42:43;6.33;;;4.73;;
5937;SDS011;2994;51.220;4.412;2023-04-07T06:45:09;6.27;;;4.67;;
5937;SDS011;2994;51.220;4.412;2023-04-07T06:47:35;4.27;;;3.57;;
5937;SDS011;2994;51.220;4.412;2023-04-07T06:50:00;4.80;;;4.03;;
5937;SDS011;2994;51.220;4.412;2023-04-07T06:52:26;4.40;;;3.90;;
5937;SDS011;2994;51.220;4.412;2023-04-07T06:54:51;6.07;;;4.70;;
5937;SDS011;2994;51.220;4.412;2023-04-07T06:57:17;7.13;;;4.70;;
5937;SDS011;2994;51.220;4.412;2023-04-07T06:59:42;7.10;;;5.30;;
5937;SDS011;2994;51.220;4.412;2023-04-07T07:02:08;9.30;;;6.33;;
5937;SDS011;2994;51.220;4.412;2023-04-07T07:04:33;11.40;;;8.00;;
5937;SDS011;2994;51.220;4.412;2023-04-07T07:06:59;10.87;;;6.83;;
5937;SDS011;2994;51.220;4.412;2023-04-07T07:09:25;9.37;;;6.70;;
5937;SDS011;2994;51.220;4.412;2023-04-07T07:11:51;5.30;;;4.50;;
5937;SDS011;2994;51.220;4.412;2023-04-07T07:14:17;7.17;;;4.90;;
5937;SDS011;2994;51.220;4.412;2023-04-07T07:16:42;5.73;;;4.13;;
5937;SDS011;2994;51.220;4.412;2023-04-07T07:19:07;6.73;;;4.57;;
5937;SDS011;2994;51.220;4.412;2023-04-07T07:21:33;5.03;;;4.53;;
5937;SDS011;2994;51.220;4.412;2023-04-07T07:23:59;3.90;;;3.60;;
5937;SDS011;2994;51.220;4.412;2023-04-07T07:26:24;10.83;;;4.43;;
5937;SDS011;2994;51.220;4.412;2023-04-07T07:28:50;7.47;;;4.77;;
5937;SDS011;2994;51.220;4.412;2023-04-07T07:31:16;5.70;;;4.20;;
5937;SDS011;2994;51.220;4.412;2023-04-07T07:33:41;5.00;;;4.03;;
5937;SDS011;2994;51.220;4.412;2023-04-07T07:36:08;3.53;;;3.10;;
5937;SDS011;2994;51.220;4.412;2023-04-07T07:38:34;4.93;;;2.70;;
5937;SDS011;2994;51.220;4.412;2023-04-07T07:41:00;5.40;;;3.03;;
5937;SDS011;2994;51.220;4.412;2023-04-07T07:43:25;4.00;;;3.60;;
5937;SDS011;2994;51.220;4.412;2023-04-07T07:45:51;7.43;;;4.00;;
5937;SDS011;2994;51.220;4.412;2023-04-07T07:48:16;6.13;;;3.63;;
5937;SDS011;2994;51.220;4.412;2023-04-07T07:50:42;6.83;;;3.43;;
5937;SDS011;2994;51.220;4.412;2023-04-07T07:53:08;7.00;;;4.00;;
5937;SDS011;2994;51.220;4.412;2023-04-07T07:55:34;5.77;;;2.67;;
5937;SDS011;2994;51.220;4.412;2023-04-07T07:57:59;4.40;;;2.93;;
5937;SDS011;2994;51.220;4.412;2023-04-07T08:00:25;6.23;;;2.93;;
5937;SDS011;2994;51.220;4.412;2023-04-07T08:02:51;3.93;;;3.40;;
5937;SDS011;2994;51.220;4.412;2023-04-07T08:05:16;5.90;;;3.60;;
5937;SDS011;2994;51.220;4.412;2023-04-07T08:07:42;4.53;;;2.83;;
5937;SDS011;2994;51.220;4.412;2023-04-07T08:10:07;3.23;;;2.60;;
5937;SDS011;2994;51.220;4.412;2023-04-07T08:12:33;4.10;;;2.37;;
5937;SDS011;2994;51.220;4.412;2023-04-07T08:14:59;2.20;;;2.00;;
5937;SDS011;2994;51.220;4.412;2023-04-07T08:17:24;4.83;;;2.20;;
5937;SDS011;2994;51.220;4.412;2023-04-07T08:19:50;3.43;;;3.00;;
5937;SDS011;2994;51.220;4.412;2023-04-07T08:22:15;4.23;;;3.00;;
5937;SDS011;2994;51.220;4.412;2023-04-07T08:24:43;4.00;;;2.87;;
5937;SDS011;2994;51.220;4.412;2023-04-07T08:27:09;13.63;;;3.70;;
5937;SDS011;2994;51.220;4.412;2023-04-07T08:29:34;6.13;;;3.07;;
5937;SDS011;2994;51.220;4.412;2023-04-07T08:32:00;4.10;;;2.83;;
5937;SDS011;2994;51.220;4.412;2023-04-07T08:34:25;4.93;;;3.13;;
5937;SDS011;2994;51.220;4.412;2023-04-07T08:36:51;5.27;;;3.23;;
5937;SDS011;2994;51.220;4.412;2023-04-07T08:39:16;6.93;;;3.57;;
5937;SDS011;2994;51.220;4.412;2023-04-07T08:41:42;8.50;;;3.83;;
5937;SDS011;2994;51.220;4.412;2023-04-07T08:44:09;3.83;;;3.20;;
5937;SDS011;2994;51.220;4.412;2023-04-07T08:46:36;4.37;;;2.70;;
5937;SDS011;2994;51.220;4.412;2023-04-07T08:49:03;6.30;;;2.97;;
5937;SDS011;2994;51.220;4.412;2023-04-07T08:51:37;5.87;;;2.80;;
5937;SDS011;2994;51.220;4.412;2023-04-07T08:54:11;5.23;;;2.77;;
5937;SDS011;2994;51.220;4.412;2023-04-07T08:56:38;4.47;;;2.17;;
5937;SDS011;2994;51.220;4.412;2023-04-07T08:59:06;3.77;;;2.70;;
5937;SDS011;2994;51.220;4.412;2023-04-07T09:01:32;3.30;;;2.23;;
5937;SDS011;2994;51.220;4.412;2023-04-07T09:04:00;4.93;;;2.80;;
5937;SDS011;2994;51.220;4.412;2023-04-07T09:06:28;11.17;;;3.20;;
5937;SDS011;2994;51.220;4.412;2023-04-07T09:08:56;3.90;;;2.17;;
5937;SDS011;2994;51.220;4.412;2023-04-07T09:11:22;5.80;;;2.80;;
5937;SDS011;2994;51.220;4.412;2023-04-07T09:13:48;5.23;;;2.60;;
5937;SDS011;2994;51.220;4.412;2023-04-07T09:16:13;4.03;;;3.07;;
5937;SDS011;2994;51.220;4.412;2023-04-07T09:18:39;3.47;;;2.70;;
5937;SDS011;2994;51.220;4.412;2023-04-07T09:21:06;4.87;;;2.67;;
5937;SDS011;2994;51.220;4.412;2023-04-07T09:23:33;4.87;;;2.80;;
5937;SDS011;2994;51.220;4.412;2023-04-07T09:26:17;5.13;;;3.20;;
5937;SDS011;2994;51.220;4.412;2023-04-07T09:28:53;7.97;;;3.50;;
5937;SDS011;2994;51.220;4.412;2023-04-07T09:31:21;7.93;;;3.50;;
5937;SDS011;2994;51.220;4.412;2023-04-07T09:33:50;3.80;;;2.70;;
5937;SDS011;2994;51.220;4.412;2023-04-07T09:36:16;5.83;;;3.43;;
5937;SDS011;2994;51.220;4.412;2023-04-07T09:38:43;5.20;;;3.03;;
5937;SDS011;2994;51.220;4.412;2023-04-07T09:41:15;3.20;;;2.87;;
5937;SDS011;2994;51.220;4.412;2023-04-07T09:43:42;5.30;;;3.00;;
5937;SDS011;2994;51.220;4.412;2023-04-07T09:48:35;8.17;;;3.90;;
5937;SDS011;2994;51.220;4.412;2023-04-07T09:51:05;7.37;;;4.33;;
5937;SDS011;2994;51.220;4.412;2023-04-07T09:53:45;11.57;;;5.90;;
5937;SDS011;2994;51.220;4.412;2023-04-07T09:56:13;8.43;;;4.10;;
5937;SDS011;2994;51.220;4.412;2023-04-07T09:58:43;6.23;;;4.13;;
5937;SDS011;2994;51.220;4.412;2023-04-07T10:01:11;7.40;;;3.80;;
5937;SDS011;2994;51.220;4.412;2023-04-07T10:03:38;9.40;;;4.00;;
5937;SDS011;2994;51.220;4.412;2023-04-07T10:06:04;4.70;;;3.00;;
5937;SDS011;2994;51.220;4.412;2023-04-07T10:08:31;5.67;;;2.70;;
5937;SDS011;2994;51.220;4.412;2023-04-07T10:11:02;4.20;;;2.60;;
5937;SDS011;2994;51.220;4.412;2023-04-07T10:13:32;9.90;;;3.50;;
5937;SDS011;2994;51.220;4.412;2023-04-07T10:16:02;7.10;;;3.70;;
5937;SDS011;2994;51.220;4.412;2023-04-07T10:18:30;4.33;;;2.57;;
5937;SDS011;2994;51.220;4.412;2023-04-07T10:20:58;4.60;;;2.63;;
5937;SDS011;2994;51.220;4.412;2023-04-07T10:25:57;3.47;;;2.60;;
5937;SDS011;2994;51.220;4.412;2023-04-07T10:28:24;5.60;;;3.00;;
5937;SDS011;2994;51.220;4.412;2023-04-07T10:30:51;4.13;;;2.23;;
5937;SDS011;2994;51.220;4.412;2023-04-07T10:33:17;4.33;;;2.67;;
5937;SDS011;2994;51.220;4.412;2023-04-07T10:36:13;6.30;;;3.00;;
5937;SDS011;2994;51.220;4.412;2023-04-07T10:38:39;4.90;;;3.30;;
5937;SDS011;2994;51.220;4.412;2023-04-07T10:44:04;7.77;;;2.93;;
5937;SDS011;2994;51.220;4.412;2023-04-07T10:49:16;10.17;;;4.13;;
5937;SDS011;2994;51.220;4.412;2023-04-07T10:51:41;3.87;;;3.47;;
5937;SDS011;2994;51.220;4.412;2023-04-07T10:54:17;6.57;;;3.40;;
5937;SDS011;2994;51.220;4.412;2023-04-07T10:59:36;4.37;;;2.80;;
5937;SDS011;2994;51.220;4.412;2023-04-07T11:04:45;4.20;;;2.63;;
5937;SDS011;2994;51.220;4.412;2023-04-07T11:07:11;4.70;;;2.83;;
5937;SDS011;2994;51.220;4.412;2023-04-07T11:09:38;5.50;;;2.70;;
5937;SDS011;2994;51.220;4.412;2023-04-07T11:12:04;4.80;;;2.97;;
5937;SDS011;2994;51.220;4.412;2023-04-07T11:14:31;5.70;;;3.10;;
5937;SDS011;2994;51.220;4.412;2023-04-07T11:16:58;7.90;;;3.37;;
5937;SDS011;2994;51.220;4.412;2023-04-07T11:19:25;4.47;;;2.63;;
5937;SDS011;2994;51.220;4.412;2023-04-07T11:21:51;3.40;;;2.50;;
5937;SDS011;2994;51.220;4.412;2023-04-07T11:24:40;4.87;;;2.40;;
5937;SDS011;2994;51.220;4.412;2023-04-07T11:27:09;4.07;;;2.50;;
5937;SDS011;2994;51.220;4.412;2023-04-07T11:29:39;5.33;;;2.10;;
5937;SDS011;2994;51.220;4.412;2023-04-07T11:32:05;3.47;;;2.70;;
5937;SDS011;2994;51.220;4.412;2023-04-07T11:34:34;3.57;;;2.87;;
5937;SDS011;2994;51.220;4.412;2023-04-07T11:39:53;3.83;;;3.00;;
5937;SDS011;2994;51.220;4.412;2023-04-07T11:45:00;4.73;;;2.80;;
5937;SDS011;2994;51.220;4.412;2023-04-07T11:47:33;3.20;;;2.57;;
5937;SDS011;2994;51.220;4.412;2023-04-07T11:50:05;3.20;;;2.17;;
5937;SDS011;2994;51.220;4.412;2023-04-07T11:52:41;4.43;;;1.83;;
5937;SDS011;2994;51.220;4.412;2023-04-07T11:55:25;3.17;;;2.43;;
5937;SDS011;2994;51.220;4.412;2023-04-07T11:57:51;2.70;;;1.80;;
5937;SDS011;2994;51.220;4.412;2023-04-07T12:00:17;2.73;;;2.13;;
5937;SDS011;2994;51.220;4.412;2023-04-07T12:02:44;4.40;;;2.33;;
5937;SDS011;2994;51.220;4.412;2023-04-07T12:05:10;2.20;;;1.70;;
5937;SDS011;2994;51.220;4.412;2023-04-07T12:07:36;6.93;;;1.90;;
5937;SDS011;2994;51.220;4.412;2023-04-07T12:10:20;2.63;;;2.10;;
5937;SDS011;2994;51.220;4.412;2023-04-07T12:12:47;3.73;;;2.00;;
5937;SDS011;2994;51.220;4.412;2023-04-07T12:15:14;10.93;;;3.00;;
5937;SDS011;2994;51.220;4.412;2023-04-07T12:17:43;2.97;;;2.33;;
5937;SDS011;2994;51.220;4.412;2023-04-07T12:20:13;1.33;;;1.20;;
5937;SDS011;2994;51.220;4.412;2023-04-07T12:22:40;2.90;;;2.43;;
5937;SDS011;2994;51.220;4.412;2023-04-07T12:25:06;2.37;;;1.60;;
5937;SDS011;2994;51.220;4.412;2023-04-07T12:27:32;4.20;;;2.07;;
5937;SDS011;2994;51.220;4.412;2023-04-07T12:29:57;3.43;;;1.63;;
5937;SDS011;2994;51.220;4.412;2023-04-07T12:32:22;3.67;;;2.13;;
5937;SDS011;2994;51.220;4.412;2023-04-07T12:34:48;4.87;;;2.07;;
5937;SDS011;2994;51.220;4.412;2023-04-07T12:37:13;4.27;;;2.40;;
5937;SDS011;2994;51.220;4.412;2023-04-07T12:39:39;5.30;;;2.27;;
5937;SDS011;2994;51.220;4.412;2023-04-07T12:42:05;5.47;;;3.30;;
5937;SDS011;2994;51.220;4.412;2023-04-07T12:44:31;5.07;;;2.07;;
5937;SDS011;2994;51.220;4.412;2023-04-07T12:46:57;3.57;;;1.77;;
5937;SDS011;2994;51.220;4.412;2023-04-07T12:49:22;4.00;;;2.10;;
5937;SDS011;2994;51.220;4.412;2023-04-07T12:51:49;3.23;;;1.60;;
5937;SDS011;2994;51.220;4.412;2023-04-07T12:54:14;1.87;;;1.40;;
5937;SDS011;2994;51.220;4.412;2023-04-07T12:56:40;2.10;;;1.30;;
5937;SDS011;2994;51.220;4.412;2023-04-07T12:59:06;1.60;;;1.20;;
5937;SDS011;2994;51.220;4.412;2023-04-07T13:01:32;1.90;;;1.40;;
5937;SDS011;2994;51.220;4.412;2023-04-07T13:03:59;1.80;;;1.13;;
5937;SDS011;2994;51.220;4.412;2023-04-07T13:06:25;1.93;;;1.43;;
5937;SDS011;2994;51.220;4.412;2023-04-07T13:08:51;4.50;;;2.10;;
5937;SDS011;2994;51.220;4.412;2023-04-07T13:11:16;1.43;;;0.97;;
5937;SDS011;2994;51.220;4.412;2023-04-07T13:13:42;3.93;;;1.70;;
5937;SDS011;2994;51.220;4.412;2023-04-07T13:16:07;1.90;;;1.20;;
5937;SDS011;2994;51.220;4.412;2023-04-07T13:18:33;2.10;;;1.33;;
5937;SDS011;2994;51.220;4.412;2023-04-07T13:20:58;5.47;;;1.53;;
5937;SDS011;2994;51.220;4.412;2023-04-07T13:23:24;4.67;;;1.80;;
5937;SDS011;2994;51.220;4.412;2023-04-07T13:25:49;1.63;;;0.90;;
5937;SDS011;2994;51.220;4.412;2023-04-07T13:28:15;1.00;;;0.80;;
5937;SDS011;2994;51.220;4.412;2023-04-07T13:30:42;2.20;;;1.40;;
5937;SDS011;2994;51.220;4.412;2023-04-07T13:33:07;2.73;;;1.27;;
5937;SDS011;2994;51.220;4.412;2023-04-07T13:35:33;3.07;;;1.70;;
5937;SDS011;2994;51.220;4.412;2023-04-07T13:38:00;7.30;;;1.33;;
5937;SDS011;2994;51.220;4.412;2023-04-07T13:40:26;1.43;;;0.90;;
5937;SDS011;2994;51.220;4.412;2023-04-07T13:42:52;2.07;;;1.30;;
5937;SDS011;2994;51.220;4.412;2023-04-07T13:45:17;4.10;;;2.57;;
5937;SDS011;2994;51.220;4.412;2023-04-07T13:47:43;3.97;;;2.23;;
5937;SDS011;2994;51.220;4.412;2023-04-07T13:50:10;3.17;;;2.87;;
5937;SDS011;2994;51.220;4.412;2023-04-07T13:52:35;3.97;;;2.17;;
5937;SDS011;2994;51.220;4.412;2023-04-07T13:55:01;3.53;;;1.93;;
5937;SDS011;2994;51.220;4.412;2023-04-07T13:57:28;4.43;;;1.80;;
5937;SDS011;2994;51.220;4.412;2023-04-07T13:59:53;5.70;;;2.37;;
5937;SDS011;2994;51.220;4.412;2023-04-07T14:02:19;2.83;;;2.53;;
5937;SDS011;2994;51.220;4.412;2023-04-07T14:04:45;5.13;;;2.47;;
5937;SDS011;2994;51.220;4.412;2023-04-07T14:07:11;3.23;;;2.10;;
5937;SDS011;2994;51.220;4.412;2023-04-07T14:09:37;9.23;;;2.50;;
5937;SDS011;2994;51.220;4.412;2023-04-07T14:12:03;5.43;;;2.13;;
5937;SDS011;2994;51.220;4.412;2023-04-07T14:14:29;4.33;;;2.30;;
5937;SDS011;2994;51.220;4.412;2023-04-07T14:16:54;3.80;;;1.90;;
5937;SDS011;2994;51.220;4.412;2023-04-07T14:19:21;6.87;;;2.70;;
5937;SDS011;2994;51.220;4.412;2023-04-07T14:21:47;3.40;;;2.67;;
5937;SDS011;2994;51.220;4.412;2023-04-07T14:24:13;4.63;;;2.40;;
5937;SDS011;2994;51.220;4.412;2023-04-07T14:26:38;4.23;;;2.27;;
5937;SDS011;2994;51.220;4.412;2023-04-07T14:29:04;4.10;;;2.90;;
5937;SDS011;2994;51.220;4.412;2023-04-07T14:31:30;5.40;;;2.17;;
5937;SDS011;2994;51.220;4.412;2023-04-07T14:33:55;3.50;;;2.10;;
5937;SDS011;2994;51.220;4.412;2023-04-07T14:36:21;4.03;;;2.03;;
5937;SDS011;2994;51.220;4.412;2023-04-07T14:38:46;3.70;;;2.50;;
5937;SDS011;2994;51.220;4.412;2023-04-07T14:41:14;7.23;;;3.77;;
5937;SDS011;2994;51.220;4.412;2023-04-07T14:43:40;4.00;;;2.27;;
5937;SDS011;2994;51.220;4.412;2023-04-07T14:46:06;3.20;;;2.33;;
5937;SDS011;2994;51.220;4.412;2023-04-07T14:48:32;4.00;;;2.07;;
5937;SDS011;2994;51.220;4.412;2023-04-07T14:50:57;3.33;;;1.80;;
5937;SDS011;2994;51.220;4.412;2023-04-07T14:53:23;2.73;;;1.80;;
5937;SDS011;2994;51.220;4.412;2023-04-07T14:55:49;4.83;;;2.40;;
5937;SDS011;2994;51.220;4.412;2023-04-07T14:58:14;3.40;;;1.93;;
5937;SDS011;2994;51.220;4.412;2023-04-07T15:00:40;4.07;;;2.30;;
5937;SDS011;2994;51.220;4.412;2023-04-07T15:03:05;3.10;;;1.90;;
5937;SDS011;2994;51.220;4.412;2023-04-07T15:05:31;2.63;;;2.23;;
5937;SDS011;2994;51.220;4.412;2023-04-07T15:07:57;5.00;;;2.80;;
5937;SDS011;2994;51.220;4.412;2023-04-07T15:10:22;2.30;;;2.10;;
5937;SDS011;2994;51.220;4.412;2023-04-07T15:12:48;2.57;;;2.13;;
5937;SDS011;2994;51.220;4.412;2023-04-07T15:15:14;6.30;;;2.70;;
5937;SDS011;2994;51.220;4.412;2023-04-07T15:17:40;4.60;;;2.37;;
5937;SDS011;2994;51.220;4.412;2023-04-07T15:20:06;2.93;;;1.80;;
5937;SDS011;2994;51.220;4.412;2023-04-07T15:22:32;4.80;;;2.80;;
5937;SDS011;2994;51.220;4.412;2023-04-07T15:24:57;4.73;;;2.80;;
5937;SDS011;2994;51.220;4.412;2023-04-07T15:27:23;5.30;;;2.30;;
5937;SDS011;2994;51.220;4.412;2023-04-07T15:29:48;4.67;;;2.33;;
5937;SDS011;2994;51.220;4.412;2023-04-07T15:32:14;3.90;;;2.20;;
5937;SDS011;2994;51.220;4.412;2023-04-07T15:34:39;4.90;;;2.50;;